sensor_id;sensor_type;location;lat;lon;timestamp;P1;durP1;ratioP1;P2;durP2;ratioP2
11524;SDS011;5819;49.648;8.330;2023-07-24T00:00:52;5.55;;;2.60;;
11524;SDS011;5819;49.648;8.330;2023-07-24T00:03:19;3.60;;;3.30;;
11524;SDS011;5819;49.648;8.330;2023-07-24T00:05:48;3.78;;;2.78;;
11524;SDS011;5819;49.648;8.330;2023-07-24T00:08:15;3.78;;;2.72;;
11524;SDS011;5819;49.648;8.330;2023-07-24T00:10:43;4.28;;;3.00;;
11524;SDS011;5819;49.648;8.330;2023-07-24T00:13:12;5.72;;;3.55;;
11524;SDS011;5819;49.648;8.330;2023-07-24T00:15:40;4.22;;;3.72;;
11524;SDS011;5819;49.648;8.330;2023-07-24T00:18:09;4.78;;;3.28;;
11524;SDS011;5819;49.648;8.330;2023-07-24T00:20:36;4.28;;;3.35;;
11524;SDS011;5819;49.648;8.330;2023-07-24T00:23:04;4.68;;;3.00;;
11524;SDS011;5819;49.648;8.330;2023-07-24T00:25:32;6.95;;;3.13;;
11524;SDS011;5819;49.648;8.330;2023-07-24T00:28:00;4.45;;;3.63;;
11524;SDS011;5819;49.648;8.330;2023-07-24T00:30:27;3.90;;;3.08;;
11524;SDS011;5819;49.648;8.330;2023-07-24T00:32:55;3.78;;;3.00;;
11524;SDS011;5819;49.648;8.330;2023-07-24T00:35:25;4.40;;;3.00;;
11524;SDS011;5819;49.648;8.330;2023-07-24T00:37:53;4.40;;;3.00;;
11524;SDS011;5819;49.648;8.330;2023-07-24T00:40:21;3.97;;;3.10;;
11524;SDS011;5819;49.648;8.330;2023-07-24T00:42:49;3.08;;;2.78;;
11524;SDS011;5819;49.648;8.330;2023-07-24T00:45:16;3.75;;;2.80;;
11524;SDS011;5819;49.648;8.330;2023-07-24T00:47:44;4.57;;;3.35;;
11524;SDS011;5819;49.648;8.330;2023-07-24T00:50:12;4.22;;;2.78;;
11524;SDS011;5819;49.648;8.330;2023-07-24T00:52:42;3.38;;;2.88;;
11524;SDS011;5819;49.648;8.330;2023-07-24T00:55:10;4.05;;;3.20;;
11524;SDS011;5819;49.648;8.330;2023-07-24T00:57:40;8.23;;;3.50;;
11524;SDS011;5819;49.648;8.330;2023-07-24T01:00:08;4.95;;;3.20;;
11524;SDS011;5819;49.648;8.330;2023-07-24T01:02:37;3.53;;;3.00;;
11524;SDS011;5819;49.648;8.330;2023-07-24T01:05:05;3.22;;;2.72;;
11524;SDS011;5819;49.648;8.330;2023-07-24T01:07:35;3.42;;;3.13;;
11524;SDS011;5819;49.648;8.330;2023-07-24T01:10:04;3.65;;;2.83;;
11524;SDS011;5819;49.648;8.330;2023-07-24T01:12:35;5.30;;;3.70;;
11524;SDS011;5819;49.648;8.330;2023-07-24T01:15:06;4.50;;;3.40;;
11524;SDS011;5819;49.648;8.330;2023-07-24T01:17:39;5.45;;;3.70;;
11524;SDS011;5819;49.648;8.330;2023-07-24T01:20:13;4.88;;;3.28;;
11524;SDS011;5819;49.648;8.330;2023-07-24T01:22:48;3.33;;;2.80;;
11524;SDS011;5819;49.648;8.330;2023-07-24T01:25:33;4.85;;;2.80;;
11524;SDS011;5819;49.648;8.330;2023-07-24T01:28:07;4.97;;;3.50;;
11524;SDS011;5819;49.648;8.330;2023-07-24T01:30:35;6.00;;;3.10;;
11524;SDS011;5819;49.648;8.330;2023-07-24T01:33:03;4.18;;;3.17;;
11524;SDS011;5819;49.648;8.330;2023-07-24T01:35:31;6.13;;;3.20;;
11524;SDS011;5819;49.648;8.330;2023-07-24T01:38:00;5.57;;;3.22;;
11524;SDS011;5819;49.648;8.330;2023-07-24T01:40:30;3.40;;;2.95;;
11524;SDS011;5819;49.648;8.330;2023-07-24T01:42:59;3.10;;;2.78;;
11524;SDS011;5819;49.648;8.330;2023-07-24T01:45:28;3.15;;;2.65;;
11524;SDS011;5819;49.648;8.330;2023-07-24T01:47:56;5.85;;;3.10;;
11524;SDS011;5819;49.648;8.330;2023-07-24T01:50:26;4.18;;;3.05;;
11524;SDS011;5819;49.648;8.330;2023-07-24T01:52:54;2.97;;;2.65;;
11524;SDS011;5819;49.648;8.330;2023-07-24T01:55:22;5.35;;;3.53;;
11524;SDS011;5819;49.648;8.330;2023-07-24T01:57:50;4.47;;;2.97;;
11524;SDS011;5819;49.648;8.330;2023-07-24T02:00:18;6.40;;;3.20;;
11524;SDS011;5819;49.648;8.330;2023-07-24T02:02:47;3.25;;;2.95;;
11524;SDS011;5819;49.648;8.330;2023-07-24T02:05:15;3.83;;;2.97;;
11524;SDS011;5819;49.648;8.330;2023-07-24T02:07:43;6.70;;;3.17;;
11524;SDS011;5819;49.648;8.330;2023-07-24T02:10:11;4.53;;;3.25;;
11524;SDS011;5819;49.648;8.330;2023-07-24T02:12:39;5.50;;;2.90;;
11524;SDS011;5819;49.648;8.330;2023-07-24T02:15:07;4.47;;;3.33;;
11524;SDS011;5819;49.648;8.330;2023-07-24T02:17:36;4.80;;;3.40;;
11524;SDS011;5819;49.648;8.330;2023-07-24T02:20:06;5.35;;;3.17;;
11524;SDS011;5819;49.648;8.330;2023-07-24T02:22:35;3.80;;;3.03;;
11524;SDS011;5819;49.648;8.330;2023-07-24T02:25:05;5.20;;;3.85;;
11524;SDS011;5819;49.648;8.330;2023-07-24T02:27:33;4.65;;;3.45;;
11524;SDS011;5819;49.648;8.330;2023-07-24T02:30:02;4.93;;;3.50;;
11524;SDS011;5819;49.648;8.330;2023-07-24T02:32:30;6.70;;;3.42;;
11524;SDS011;5819;49.648;8.330;2023-07-24T02:34:59;5.18;;;3.67;;
11524;SDS011;5819;49.648;8.330;2023-07-24T02:37:28;6.20;;;3.70;;
11524;SDS011;5819;49.648;8.330;2023-07-24T02:39:56;4.05;;;3.40;;
11524;SDS011;5819;49.648;8.330;2023-07-24T02:42:24;6.65;;;3.75;;
11524;SDS011;5819;49.648;8.330;2023-07-24T02:44:52;5.00;;;3.80;;
11524;SDS011;5819;49.648;8.330;2023-07-24T02:47:20;6.53;;;3.70;;
11524;SDS011;5819;49.648;8.330;2023-07-24T02:49:48;4.15;;;3.70;;
11524;SDS011;5819;49.648;8.330;2023-07-24T02:52:16;4.03;;;3.63;;
11524;SDS011;5819;49.648;8.330;2023-07-24T02:54:45;4.85;;;3.58;;
11524;SDS011;5819;49.648;8.330;2023-07-24T02:57:14;5.10;;;3.80;;
11524;SDS011;5819;49.648;8.330;2023-07-24T02:59:42;4.88;;;3.42;;
11524;SDS011;5819;49.648;8.330;2023-07-24T03:02:10;5.05;;;3.47;;
11524;SDS011;5819;49.648;8.330;2023-07-24T03:04:38;4.45;;;3.95;;
11524;SDS011;5819;49.648;8.330;2023-07-24T03:07:06;5.97;;;3.65;;
11524;SDS011;5819;49.648;8.330;2023-07-24T03:09:34;6.60;;;4.03;;
11524;SDS011;5819;49.648;8.330;2023-07-24T03:12:04;4.53;;;3.95;;
11524;SDS011;5819;49.648;8.330;2023-07-24T03:14:32;6.68;;;4.38;;
11524;SDS011;5819;49.648;8.330;2023-07-24T03:17:00;5.47;;;4.25;;
11524;SDS011;5819;49.648;8.330;2023-07-24T03:19:29;4.88;;;4.28;;
11524;SDS011;5819;49.648;8.330;2023-07-24T03:21:58;5.05;;;4.35;;
11524;SDS011;5819;49.648;8.330;2023-07-24T03:24:26;5.20;;;4.60;;
11524;SDS011;5819;49.648;8.330;2023-07-24T03:26:54;5.88;;;4.00;;
11524;SDS011;5819;49.648;8.330;2023-07-24T03:29:24;5.25;;;4.35;;
11524;SDS011;5819;49.648;8.330;2023-07-24T03:31:52;8.07;;;4.20;;
11524;SDS011;5819;49.648;8.330;2023-07-24T03:34:20;6.05;;;4.70;;
11524;SDS011;5819;49.648;8.330;2023-07-24T03:36:48;7.63;;;5.22;;
11524;SDS011;5819;49.648;8.330;2023-07-24T03:39:16;6.22;;;4.47;;
11524;SDS011;5819;49.648;8.330;2023-07-24T03:41:44;5.57;;;4.15;;
11524;SDS011;5819;49.648;8.330;2023-07-24T03:44:12;6.82;;;4.15;;
11524;SDS011;5819;49.648;8.330;2023-07-24T03:46:42;7.43;;;5.18;;
11524;SDS011;5819;49.648;8.330;2023-07-24T03:49:09;4.70;;;3.88;;
11524;SDS011;5819;49.648;8.330;2023-07-24T03:51:37;7.05;;;4.20;;
11524;SDS011;5819;49.648;8.330;2023-07-24T03:54:06;6.63;;;4.40;;
11524;SDS011;5819;49.648;8.330;2023-07-24T03:56:33;5.45;;;4.35;;
11524;SDS011;5819;49.648;8.330;2023-07-24T03:59:01;6.10;;;4.68;;
11524;SDS011;5819;49.648;8.330;2023-07-24T04:01:29;5.75;;;4.70;;
11524;SDS011;5819;49.648;8.330;2023-07-24T04:03:58;6.25;;;4.20;;
11524;SDS011;5819;49.648;8.330;2023-07-24T04:06:26;5.30;;;4.38;;
11524;SDS011;5819;49.648;8.330;2023-07-24T04:08:56;8.07;;;5.25;;
11524;SDS011;5819;49.648;8.330;2023-07-24T04:11:24;6.68;;;4.80;;
11524;SDS011;5819;49.648;8.330;2023-07-24T04:13:52;8.73;;;4.57;;
11524;SDS011;5819;49.648;8.330;2023-07-24T04:16:20;6.63;;;4.93;;
11524;SDS011;5819;49.648;8.330;2023-07-24T04:18:48;6.00;;;5.32;;
11524;SDS011;5819;49.648;8.330;2023-07-24T04:21:17;7.30;;;5.70;;
11524;SDS011;5819;49.648;8.330;2023-07-24T04:23:45;6.10;;;5.22;;
11524;SDS011;5819;49.648;8.330;2023-07-24T04:26:13;6.53;;;5.47;;
11524;SDS011;5819;49.648;8.330;2023-07-24T04:28:40;7.88;;;6.00;;
11524;SDS011;5819;49.648;8.330;2023-07-24T04:31:08;10.50;;;6.00;;
11524;SDS011;5819;49.648;8.330;2023-07-24T04:33:36;7.20;;;5.95;;
11524;SDS011;5819;49.648;8.330;2023-07-24T04:36:04;8.68;;;5.72;;
11524;SDS011;5819;49.648;8.330;2023-07-24T04:38:34;7.82;;;5.78;;
11524;SDS011;5819;49.648;8.330;2023-07-24T04:41:02;7.03;;;5.85;;
11524;SDS011;5819;49.648;8.330;2023-07-24T04:43:29;8.25;;;6.55;;
11524;SDS011;5819;49.648;8.330;2023-07-24T04:45:57;8.60;;;5.95;;
11524;SDS011;5819;49.648;8.330;2023-07-24T04:48:25;9.57;;;6.60;;
11524;SDS011;5819;49.648;8.330;2023-07-24T04:50:53;7.38;;;5.57;;
11524;SDS011;5819;49.648;8.330;2023-07-24T04:53:22;10.57;;;6.28;;
11524;SDS011;5819;49.648;8.330;2023-07-24T04:55:51;6.32;;;5.63;;
11524;SDS011;5819;49.648;8.330;2023-07-24T04:58:19;8.25;;;5.85;;
11524;SDS011;5819;49.648;8.330;2023-07-24T05:00:47;8.50;;;5.93;;
11524;SDS011;5819;49.648;8.330;2023-07-24T05:03:15;9.40;;;6.03;;
11524;SDS011;5819;49.648;8.330;2023-07-24T05:05:43;8.45;;;6.00;;
11524;SDS011;5819;49.648;8.330;2023-07-24T05:08:15;9.55;;;6.03;;
11524;SDS011;5819;49.648;8.330;2023-07-24T05:10:43;8.65;;;5.85;;
11524;SDS011;5819;49.648;8.330;2023-07-24T05:13:12;7.97;;;5.93;;
11524;SDS011;5819;49.648;8.330;2023-07-24T05:15:40;8.30;;;6.57;;
11524;SDS011;5819;49.648;8.330;2023-07-24T05:18:08;7.93;;;6.38;;
11524;SDS011;5819;49.648;8.330;2023-07-24T05:20:36;6.95;;;5.70;;
11524;SDS011;5819;49.648;8.330;2023-07-24T05:23:04;13.43;;;6.25;;
11524;SDS011;5819;49.648;8.330;2023-07-24T05:25:32;9.75;;;6.30;;
11524;SDS011;5819;49.648;8.330;2023-07-24T05:28:00;12.75;;;6.03;;
11524;SDS011;5819;49.648;8.330;2023-07-24T05:30:29;6.88;;;5.85;;
11524;SDS011;5819;49.648;8.330;2023-07-24T05:32:57;10.25;;;6.72;;
11524;SDS011;5819;49.648;8.330;2023-07-24T05:35:25;8.52;;;5.90;;
11524;SDS011;5819;49.648;8.330;2023-07-24T05:37:53;10.63;;;6.80;;
11524;SDS011;5819;49.648;8.330;2023-07-24T05:40:22;7.93;;;7.05;;
11524;SDS011;5819;49.648;8.330;2023-07-24T05:42:51;12.07;;;6.75;;
11524;SDS011;5819;49.648;8.330;2023-07-24T05:45:21;9.27;;;7.07;;
11524;SDS011;5819;49.648;8.330;2023-07-24T05:47:52;10.05;;;6.25;;
11524;SDS011;5819;49.648;8.330;2023-07-24T05:50:21;11.25;;;7.10;;
11524;SDS011;5819;49.648;8.330;2023-07-24T05:52:49;10.38;;;7.13;;
11524;SDS011;5819;49.648;8.330;2023-07-24T05:55:17;9.50;;;6.47;;
11524;SDS011;5819;49.648;8.330;2023-07-24T05:57:45;9.55;;;6.18;;
11524;SDS011;5819;49.648;8.330;2023-07-24T06:00:13;8.50;;;7.18;;
11524;SDS011;5819;49.648;8.330;2023-07-24T06:02:41;13.57;;;7.20;;
11524;SDS011;5819;49.648;8.330;2023-07-24T06:05:11;17.10;;;13.38;;
11524;SDS011;5819;49.648;8.330;2023-07-24T06:07:39;14.82;;;12.93;;
11524;SDS011;5819;49.648;8.330;2023-07-24T06:10:07;8.55;;;6.70;;
11524;SDS011;5819;49.648;8.330;2023-07-24T06:12:37;11.63;;;7.43;;
11524;SDS011;5819;49.648;8.330;2023-07-24T06:15:05;9.15;;;7.47;;
11524;SDS011;5819;49.648;8.330;2023-07-24T06:17:34;10.73;;;7.38;;
11524;SDS011;5819;49.648;8.330;2023-07-24T06:20:01;11.45;;;7.65;;
11524;SDS011;5819;49.648;8.330;2023-07-24T06:22:31;12.32;;;7.25;;
11524;SDS011;5819;49.648;8.330;2023-07-24T06:24:58;10.50;;;8.18;;
11524;SDS011;5819;49.648;8.330;2023-07-24T06:27:26;10.40;;;7.18;;
11524;SDS011;5819;49.648;8.330;2023-07-24T06:29:54;11.18;;;8.05;;
11524;SDS011;5819;49.648;8.330;2023-07-24T06:32:40;13.48;;;7.50;;
11524;SDS011;5819;49.648;8.330;2023-07-24T06:35:07;9.13;;;7.70;;
11524;SDS011;5819;49.648;8.330;2023-07-24T06:37:37;10.63;;;8.23;;
11524;SDS011;5819;49.648;8.330;2023-07-24T06:40:05;10.43;;;8.25;;
11524;SDS011;5819;49.648;8.330;2023-07-24T06:42:34;12.82;;;8.60;;
11524;SDS011;5819;49.648;8.330;2023-07-24T06:45:02;8.48;;;7.40;;
11524;SDS011;5819;49.648;8.330;2023-07-24T06:47:34;12.63;;;8.55;;
11524;SDS011;5819;49.648;8.330;2023-07-24T06:50:01;11.23;;;7.75;;
11524;SDS011;5819;49.648;8.330;2023-07-24T06:52:31;12.15;;;7.60;;
11524;SDS011;5819;49.648;8.330;2023-07-24T06:55:00;9.85;;;8.05;;
11524;SDS011;5819;49.648;8.330;2023-07-24T06:57:28;9.90;;;7.60;;
11524;SDS011;5819;49.648;8.330;2023-07-24T06:59:56;10.93;;;7.47;;
11524;SDS011;5819;49.648;8.330;2023-07-24T07:02:24;13.07;;;7.53;;
11524;SDS011;5819;49.648;8.330;2023-07-24T07:04:51;20.48;;;18.35;;
11524;SDS011;5819;49.648;8.330;2023-07-24T07:07:19;20.67;;;15.80;;
11524;SDS011;5819;49.648;8.330;2023-07-24T07:09:47;10.75;;;8.93;;
11524;SDS011;5819;49.648;8.330;2023-07-24T07:12:16;10.93;;;7.95;;
11524;SDS011;5819;49.648;8.330;2023-07-24T07:14:47;12.98;;;8.40;;
11524;SDS011;5819;49.648;8.330;2023-07-24T07:17:15;9.65;;;7.53;;
11524;SDS011;5819;49.648;8.330;2023-07-24T07:19:43;11.93;;;7.95;;
11524;SDS011;5819;49.648;8.330;2023-07-24T07:22:11;11.13;;;7.05;;
11524;SDS011;5819;49.648;8.330;2023-07-24T07:24:38;10.07;;;7.82;;
11524;SDS011;5819;49.648;8.330;2023-07-24T07:27:06;9.27;;;7.38;;
11524;SDS011;5819;49.648;8.330;2023-07-24T07:29:36;10.30;;;6.93;;
11524;SDS011;5819;49.648;8.330;2023-07-24T07:32:04;11.52;;;7.18;;
11524;SDS011;5819;49.648;8.330;2023-07-24T07:34:33;7.50;;;6.22;;
11524;SDS011;5819;49.648;8.330;2023-07-24T07:37:01;10.07;;;6.38;;
11524;SDS011;5819;49.648;8.330;2023-07-24T07:39:29;9.23;;;6.47;;
11524;SDS011;5819;49.648;8.330;2023-07-24T07:41:57;12.10;;;6.28;;
11524;SDS011;5819;49.648;8.330;2023-07-24T07:44:44;8.40;;;6.07;;
11524;SDS011;5819;49.648;8.330;2023-07-24T07:47:12;8.63;;;6.55;;
11524;SDS011;5819;49.648;8.330;2023-07-24T07:49:40;9.65;;;7.35;;
11524;SDS011;5819;49.648;8.330;2023-07-24T07:52:08;10.70;;;7.22;;
11524;SDS011;5819;49.648;8.330;2023-07-24T07:54:37;8.25;;;6.55;;
11524;SDS011;5819;49.648;8.330;2023-07-24T07:57:05;7.60;;;6.80;;
11524;SDS011;5819;49.648;8.330;2023-07-24T07:59:33;9.77;;;6.47;;
11524;SDS011;5819;49.648;8.330;2023-07-24T08:02:03;7.93;;;6.40;;
11524;SDS011;5819;49.648;8.330;2023-07-24T08:04:31;8.00;;;6.60;;
11524;SDS011;5819;49.648;8.330;2023-07-24T08:06:59;8.93;;;7.20;;
11524;SDS011;5819;49.648;8.330;2023-07-24T08:09:27;7.97;;;6.65;;
11524;SDS011;5819;49.648;8.330;2023-07-24T08:11:55;10.23;;;7.00;;
11524;SDS011;5819;49.648;8.330;2023-07-24T08:14:23;13.45;;;7.05;;
11524;SDS011;5819;49.648;8.330;2023-07-24T08:16:51;9.13;;;8.15;;
11524;SDS011;5819;49.648;8.330;2023-07-24T08:19:21;12.45;;;7.53;;
11524;SDS011;5819;49.648;8.330;2023-07-24T08:21:49;9.75;;;7.53;;
11524;SDS011;5819;49.648;8.330;2023-07-24T08:24:17;14.55;;;7.10;;
11524;SDS011;5819;49.648;8.330;2023-07-24T08:26:45;10.05;;;6.97;;
11524;SDS011;5819;49.648;8.330;2023-07-24T08:29:13;11.65;;;7.57;;
11524;SDS011;5819;49.648;8.330;2023-07-24T08:31:41;11.05;;;7.55;;
11524;SDS011;5819;49.648;8.330;2023-07-24T08:34:09;9.23;;;7.38;;
11524;SDS011;5819;49.648;8.330;2023-07-24T08:36:38;12.02;;;7.60;;
11524;SDS011;5819;49.648;8.330;2023-07-24T08:39:06;8.27;;;7.10;;
11524;SDS011;5819;49.648;8.330;2023-07-24T08:41:34;11.82;;;7.43;;
11524;SDS011;5819;49.648;8.330;2023-07-24T08:44:03;9.98;;;7.47;;
11524;SDS011;5819;49.648;8.330;2023-07-24T08:46:33;8.80;;;6.88;;
11524;SDS011;5819;49.648;8.330;2023-07-24T08:49:03;8.43;;;6.75;;
11524;SDS011;5819;49.648;8.330;2023-07-24T08:51:32;8.82;;;7.30;;
11524;SDS011;5819;49.648;8.330;2023-07-24T08:54:01;10.05;;;8.02;;
11524;SDS011;5819;49.648;8.330;2023-07-24T08:56:30;8.52;;;7.53;;
11524;SDS011;5819;49.648;8.330;2023-07-24T08:58:58;11.90;;;7.18;;
11524;SDS011;5819;49.648;8.330;2023-07-24T09:01:26;11.18;;;7.35;;
11524;SDS011;5819;49.648;8.330;2023-07-24T09:03:54;12.27;;;7.57;;
11524;SDS011;5819;49.648;8.330;2023-07-24T09:06:23;8.77;;;6.50;;
11524;SDS011;5819;49.648;8.330;2023-07-24T09:08:53;7.93;;;6.80;;
11524;SDS011;5819;49.648;8.330;2023-07-24T09:11:23;17.88;;;12.63;;
11524;SDS011;5819;49.648;8.330;2023-07-24T09:13:50;20.00;;;17.88;;
11524;SDS011;5819;49.648;8.330;2023-07-24T09:16:21;7.13;;;6.43;;
11524;SDS011;5819;49.648;8.330;2023-07-24T09:18:50;7.20;;;6.50;;
11524;SDS011;5819;49.648;8.330;2023-07-24T09:21:27;8.57;;;6.07;;
11524;SDS011;5819;49.648;8.330;2023-07-24T09:23:57;7.20;;;6.50;;
11524;SDS011;5819;49.648;8.330;2023-07-24T09:26:26;8.27;;;6.13;;
11524;SDS011;5819;49.648;8.330;2023-07-24T09:28:55;6.20;;;5.60;;
11524;SDS011;5819;49.648;8.330;2023-07-24T09:31:33;6.00;;;5.20;;
11524;SDS011;5819;49.648;8.330;2023-07-24T09:34:01;6.55;;;5.57;;
11524;SDS011;5819;49.648;8.330;2023-07-24T09:36:36;6.45;;;5.03;;
11524;SDS011;5819;49.648;8.330;2023-07-24T09:39:05;8.20;;;5.25;;
11524;SDS011;5819;49.648;8.330;2023-07-24T09:41:38;6.22;;;5.18;;
11524;SDS011;5819;49.648;8.330;2023-07-24T09:44:07;10.07;;;5.40;;
11524;SDS011;5819;49.648;8.330;2023-07-24T09:46:35;10.93;;;5.07;;
11524;SDS011;5819;49.648;8.330;2023-07-24T09:49:13;5.88;;;4.47;;
11524;SDS011;5819;49.648;8.330;2023-07-24T09:51:41;5.93;;;4.15;;
11524;SDS011;5819;49.648;8.330;2023-07-24T09:54:15;10.18;;;4.82;;
11524;SDS011;5819;49.648;8.330;2023-07-24T09:56:50;6.68;;;4.47;;
11524;SDS011;5819;49.648;8.330;2023-07-24T09:59:32;5.50;;;4.55;;
11524;SDS011;5819;49.648;8.330;2023-07-24T10:02:01;7.30;;;4.75;;
11524;SDS011;5819;49.648;8.330;2023-07-24T10:04:31;6.10;;;4.80;;
11524;SDS011;5819;49.648;8.330;2023-07-24T10:07:00;6.90;;;4.95;;
11524;SDS011;5819;49.648;8.330;2023-07-24T10:09:28;5.28;;;4.63;;
11524;SDS011;5819;49.648;8.330;2023-07-24T10:11:58;5.60;;;4.93;;
11524;SDS011;5819;49.648;8.330;2023-07-24T10:14:27;6.55;;;4.85;;
11524;SDS011;5819;49.648;8.330;2023-07-24T10:16:56;6.07;;;4.80;;
11524;SDS011;5819;49.648;8.330;2023-07-24T10:19:24;17.17;;;14.68;;
11524;SDS011;5819;49.648;8.330;2023-07-24T10:22:03;6.68;;;5.95;;
11524;SDS011;5819;49.648;8.330;2023-07-24T10:24:32;6.72;;;4.55;;
11524;SDS011;5819;49.648;8.330;2023-07-24T10:27:09;5.85;;;4.78;;
11524;SDS011;5819;49.648;8.330;2023-07-24T10:29:39;6.30;;;4.68;;
11524;SDS011;5819;49.648;8.330;2023-07-24T10:32:16;5.72;;;5.00;;
11524;SDS011;5819;49.648;8.330;2023-07-24T10:34:45;9.48;;;4.72;;
11524;SDS011;5819;49.648;8.330;2023-07-24T10:37:30;7.28;;;4.65;;
11524;SDS011;5819;49.648;8.330;2023-07-24T10:39:59;5.00;;;4.25;;
11524;SDS011;5819;49.648;8.330;2023-07-24T10:42:29;6.38;;;5.32;;
11524;SDS011;5819;49.648;8.330;2023-07-24T10:45:04;13.55;;;12.15;;
11524;SDS011;5819;49.648;8.330;2023-07-24T10:47:33;6.00;;;5.10;;
11524;SDS011;5819;49.648;8.330;2023-07-24T10:50:01;5.65;;;4.72;;
11524;SDS011;5819;49.648;8.330;2023-07-24T10:52:29;6.63;;;4.45;;
11524;SDS011;5819;49.648;8.330;2023-07-24T10:54:59;5.40;;;4.53;;
11524;SDS011;5819;49.648;8.330;2023-07-24T10:57:29;6.35;;;4.45;;
11524;SDS011;5819;49.648;8.330;2023-07-24T10:59:58;4.60;;;4.20;;
11524;SDS011;5819;49.648;8.330;2023-07-24T11:02:26;5.25;;;4.47;;
11524;SDS011;5819;49.648;8.330;2023-07-24T11:04:55;8.93;;;5.57;;
11524;SDS011;5819;49.648;8.330;2023-07-24T11:07:31;5.03;;;4.47;;
11524;SDS011;5819;49.648;8.330;2023-07-24T11:09:59;6.43;;;4.75;;
11524;SDS011;5819;49.648;8.330;2023-07-24T11:12:28;7.85;;;4.28;;
11524;SDS011;5819;49.648;8.330;2023-07-24T11:14:58;6.95;;;4.72;;
11524;SDS011;5819;49.648;8.330;2023-07-24T11:17:33;8.45;;;5.10;;
11524;SDS011;5819;49.648;8.330;2023-07-24T11:20:05;6.25;;;4.88;;
11524;SDS011;5819;49.648;8.330;2023-07-24T11:22:34;5.20;;;4.45;;
11524;SDS011;5819;49.648;8.330;2023-07-24T11:25:04;6.43;;;4.40;;
11524;SDS011;5819;49.648;8.330;2023-07-24T11:27:37;9.75;;;4.95;;
11524;SDS011;5819;49.648;8.330;2023-07-24T11:30:07;4.88;;;4.40;;
11524;SDS011;5819;49.648;8.330;2023-07-24T11:32:37;5.43;;;4.63;;
11524;SDS011;5819;49.648;8.330;2023-07-24T11:35:07;8.20;;;4.78;;
11524;SDS011;5819;49.648;8.330;2023-07-24T11:37:36;6.78;;;4.60;;
11524;SDS011;5819;49.648;8.330;2023-07-24T11:40:05;6.13;;;4.63;;
11524;SDS011;5819;49.648;8.330;2023-07-24T11:42:38;5.72;;;4.57;;
11524;SDS011;5819;49.648;8.330;2023-07-24T11:45:08;5.03;;;4.50;;
11524;SDS011;5819;49.648;8.330;2023-07-24T11:47:43;5.57;;;4.38;;
11524;SDS011;5819;49.648;8.330;2023-07-24T11:50:12;5.80;;;4.75;;
11524;SDS011;5819;49.648;8.330;2023-07-24T11:52:41;5.40;;;4.55;;
11524;SDS011;5819;49.648;8.330;2023-07-24T11:55:10;5.57;;;4.95;;
11524;SDS011;5819;49.648;8.330;2023-07-24T11:57:40;5.30;;;4.80;;
11524;SDS011;5819;49.648;8.330;2023-07-24T12:00:17;5.40;;;4.90;;
11524;SDS011;5819;49.648;8.330;2023-07-24T12:02:47;5.88;;;4.60;;
11524;SDS011;5819;49.648;8.330;2023-07-24T12:05:16;4.93;;;4.47;;
11524;SDS011;5819;49.648;8.330;2023-07-24T12:07:45;6.38;;;5.13;;
11524;SDS011;5819;49.648;8.330;2023-07-24T12:10:24;5.70;;;5.10;;
11524;SDS011;5819;49.648;8.330;2023-07-24T12:12:59;7.95;;;5.72;;
11524;SDS011;5819;49.648;8.330;2023-07-24T12:15:27;7.47;;;5.40;;
11524;SDS011;5819;49.648;8.330;2023-07-24T12:17:55;5.30;;;4.68;;
11524;SDS011;5819;49.648;8.330;2023-07-24T12:20:24;5.03;;;4.53;;
11524;SDS011;5819;49.648;8.330;2023-07-24T12:22:51;5.38;;;4.82;;
11524;SDS011;5819;49.648;8.330;2023-07-24T12:25:20;5.30;;;4.80;;
11524;SDS011;5819;49.648;8.330;2023-07-24T12:27:48;5.93;;;5.32;;
11524;SDS011;5819;49.648;8.330;2023-07-24T12:30:18;5.95;;;5.00;;
11524;SDS011;5819;49.648;8.330;2023-07-24T12:32:45;8.02;;;5.72;;
11524;SDS011;5819;49.648;8.330;2023-07-24T12:35:14;7.72;;;6.38;;
11524;SDS011;5819;49.648;8.330;2023-07-24T12:37:43;9.00;;;6.40;;
11524;SDS011;5819;49.648;8.330;2023-07-24T12:40:12;7.35;;;5.75;;
11524;SDS011;5819;49.648;8.330;2023-07-24T12:42:40;7.25;;;6.18;;
11524;SDS011;5819;49.648;8.330;2023-07-24T12:45:08;7.57;;;6.20;;
11524;SDS011;5819;49.648;8.330;2023-07-24T12:47:37;10.15;;;6.72;;
11524;SDS011;5819;49.648;8.330;2023-07-24T12:50:05;8.27;;;6.60;;
11524;SDS011;5819;49.648;8.330;2023-07-24T12:52:34;8.50;;;6.55;;
11524;SDS011;5819;49.648;8.330;2023-07-24T12:55:01;8.82;;;6.47;;
11524;SDS011;5819;49.648;8.330;2023-07-24T12:57:29;8.65;;;6.82;;
11524;SDS011;5819;49.648;8.330;2023-07-24T12:59:57;7.10;;;6.40;;
11524;SDS011;5819;49.648;8.330;2023-07-24T13:02:25;7.80;;;7.00;;
11524;SDS011;5819;49.648;8.330;2023-07-24T13:04:54;7.63;;;6.22;;
11524;SDS011;5819;49.648;8.330;2023-07-24T13:07:22;7.28;;;6.32;;
11524;SDS011;5819;49.648;8.330;2023-07-24T13:09:50;11.27;;;7.20;;
11524;SDS011;5819;49.648;8.330;2023-07-24T13:12:18;9.23;;;7.18;;
11524;SDS011;5819;49.648;8.330;2023-07-24T13:14:46;9.90;;;7.45;;
11524;SDS011;5819;49.648;8.330;2023-07-24T13:17:14;9.20;;;7.75;;
11524;SDS011;5819;49.648;8.330;2023-07-24T13:19:41;9.10;;;7.97;;
11524;SDS011;5819;49.648;8.330;2023-07-24T13:22:11;10.50;;;7.55;;
11524;SDS011;5819;49.648;8.330;2023-07-24T13:24:39;11.50;;;7.07;;
11524;SDS011;5819;49.648;8.330;2023-07-24T13:27:07;9.00;;;7.65;;
11524;SDS011;5819;49.648;8.330;2023-07-24T13:29:35;10.63;;;7.18;;
11524;SDS011;5819;49.648;8.330;2023-07-24T13:32:03;8.38;;;7.28;;
11524;SDS011;5819;49.648;8.330;2023-07-24T13:34:31;7.57;;;6.78;;
11524;SDS011;5819;49.648;8.330;2023-07-24T13:36:59;10.32;;;6.90;;
11524;SDS011;5819;49.648;8.330;2023-07-24T13:39:29;7.85;;;5.78;;
11524;SDS011;5819;49.648;8.330;2023-07-24T13:41:57;6.00;;;5.40;;
11524;SDS011;5819;49.648;8.330;2023-07-24T13:44:25;6.20;;;5.60;;
11524;SDS011;5819;49.648;8.330;2023-07-24T13:46:53;7.50;;;6.03;;
11524;SDS011;5819;49.648;8.330;2023-07-24T13:49:22;6.60;;;5.43;;
11524;SDS011;5819;49.648;8.330;2023-07-24T13:51:50;5.95;;;4.82;;
11524;SDS011;5819;49.648;8.330;2023-07-24T13:54:18;6.03;;;5.38;;
11524;SDS011;5819;49.648;8.330;2023-07-24T13:56:47;5.30;;;4.80;;
11524;SDS011;5819;49.648;8.330;2023-07-24T13:59:16;4.90;;;4.38;;
11524;SDS011;5819;49.648;8.330;2023-07-24T14:01:44;6.78;;;5.07;;
11524;SDS011;5819;49.648;8.330;2023-07-24T14:04:12;6.22;;;5.28;;
11524;SDS011;5819;49.648;8.330;2023-07-24T14:06:41;6.53;;;5.43;;
11524;SDS011;5819;49.648;8.330;2023-07-24T14:09:08;6.15;;;4.85;;
11524;SDS011;5819;49.648;8.330;2023-07-24T14:11:36;5.53;;;4.82;;
11524;SDS011;5819;49.648;8.330;2023-07-24T14:14:05;6.93;;;4.93;;
11524;SDS011;5819;49.648;8.330;2023-07-24T14:16:33;6.45;;;4.82;;
11524;SDS011;5819;49.648;8.330;2023-07-24T14:19:01;5.18;;;4.50;;
11524;SDS011;5819;49.648;8.330;2023-07-24T14:21:29;4.60;;;4.18;;
11524;SDS011;5819;49.648;8.330;2023-07-24T14:23:58;4.50;;;3.97;;
11524;SDS011;5819;49.648;8.330;2023-07-24T14:26:26;4.28;;;3.88;;
11524;SDS011;5819;49.648;8.330;2023-07-24T14:28:54;4.70;;;3.95;;
11524;SDS011;5819;49.648;8.330;2023-07-24T14:31:24;4.43;;;4.03;;
11524;SDS011;5819;49.648;8.330;2023-07-24T14:33:52;4.53;;;3.72;;
11524;SDS011;5819;49.648;8.330;2023-07-24T14:36:20;5.32;;;3.67;;
11524;SDS011;5819;49.648;8.330;2023-07-24T14:38:48;5.40;;;3.70;;
11524;SDS011;5819;49.648;8.330;2023-07-24T14:41:16;4.32;;;3.60;;
11524;SDS011;5819;49.648;8.330;2023-07-24T14:43:44;11.70;;;10.48;;
11524;SDS011;5819;49.648;8.330;2023-07-24T14:46:12;29.63;;;26.52;;
11524;SDS011;5819;49.648;8.330;2023-07-24T14:48:41;4.30;;;3.70;;
11524;SDS011;5819;49.648;8.330;2023-07-24T14:51:09;4.65;;;3.55;;
11524;SDS011;5819;49.648;8.330;2023-07-24T14:53:37;3.08;;;2.78;;
11524;SDS011;5819;49.648;8.330;2023-07-24T14:56:05;5.20;;;2.80;;
11524;SDS011;5819;49.648;8.330;2023-07-24T14:58:33;3.00;;;2.70;;
11524;SDS011;5819;49.648;8.330;2023-07-24T15:01:01;2.70;;;2.50;;
11524;SDS011;5819;49.648;8.330;2023-07-24T15:03:28;4.22;;;2.72;;
11524;SDS011;5819;49.648;8.330;2023-07-24T15:05:57;3.38;;;3.08;;
11524;SDS011;5819;49.648;8.330;2023-07-24T15:08:30;3.58;;;3.10;;